RV Helmer Hanssen — LAHV — position and weather

sailwx.info

Track history (hours):
 
Tides and Currents Weather Stations Pressure Air Temp Water Temp Dewpoint Dewpoint Depression Visibility Wind Speed Wind Dir Waves Ship Positions

Oceanographic research ship RV Helmer Hanssen (Norway)

ex Jan Mayen.

Ship's website: http://uit.no/bfe

Detailed information on ship capabilities available from University of Delaware's Ocean Information Center and ARCUS's ALIAS (Arctic Logistics Information and Support) project.

Last reported at 2017-Aug-19 12:00 UTC. Time now 2017-Aug-19 15:01 UTC.
Position N 78°12' E 015°36'.

Length 64 m; beam 13 m.

Type: Cargo ship. MMSI: 257471500.

Wind from 020 at 4 knots

Barometer 1014.5 mb
Air temperature 6.0 ° C
Dewpoint -1.2 ° C
Water temperature 7.5 ° C

Date/timePositionNaut miles runAvg speedWind from/ knotsBaromVisibWave heightAir tempDewpointWater temp
2017-Aug-19 12:00N 78°12' E 015°36'0 0.0 020 / 41014.5 6.0-1.2 7.5
2017-Aug-19 09:00N 78°12' E 015°36'0 0.0 020 / 21015.1 5.0-1.7 7.5
2017-Aug-19 06:00N 78°12' E 015°36'0 0.0 090 / 41015.5 3.7-2.3 7.2
2017-Aug-19 03:00N 78°12' E 015°36'0 0.0 230 / 81015.6 2.5-2.3 7.2
2017-Aug-19 00:00N 78°12' E 015°36'0 0.0 100 / 21015.8 2.7-1.9 7.5
2017-Aug-18 21:00N 78°12' E 015°36'6 2.0 230 / 81015.8 4.0-1.9 7.3
2017-Aug-18 18:00N 78°18' E 015°30'23 7.7 220 / 121015.7 4.4-1.2 7.1
2017-Aug-18 15:00N 78°36' E 016°42'0 0.0 100 / 21015.5 4.5-2.3 7.9
2017-Aug-18 12:00N 78°36' E 016°42'2 0.8 140 / 21015.7 4.2-1.9 7.5
2017-Aug-18 09:00N 78°36' E 016°30'0 0.0 360 / 41015.6 3.2-1.7 7.6
2017-Aug-18 06:00N 78°36' E 016°30'0 0.0 350 / 101014.829.7 0.5 2.7-2.3 7.7
2017-Aug-18 03:00N 78°36' E 016°30'0 0.0 340 / 61014.7 3.2-2.4 7.6
2017-Aug-18 00:00N 78°36' E 016°30'24 7.9 310 / 161014.1 3.2-3.0 7.5
2017-Aug-17 21:00N 78°18' E 015°12'4 1.2 290 / 191015.0 3.2-3.3 6.9
2017-Aug-17 18:00N 78°18' E 015°30'9 3.1 280 / 191014.2 3.5-4.1 7.4
2017-Aug-17 15:00N 78°24' E 016°06'9 2.8 290 / 251013.0 3.8-2.8 6.5
2017-Aug-17 12:00N 78°18' E 015°36'9 2.8 270 / 171013.1 4.4-3.3 6.8
2017-Aug-17 09:00N 78°18' E 014°54'28 9.5 290 / 161013.1 3.3-3.2 6.9
2017-Aug-17 06:00N 78°06' E 012°48'3010.1 320 / 141013.013.5 2.0 2.5-2.3 6.3
2017-Aug-17 03:00N 78°24' E 010°48'3110.2 320 / 251013.0 1.8-1.0 6.8
2017-Aug-17 00:00N 78°54' E 010°18'17 5.8 340 / 171011.7 1.1-1.7 6.8
2017-Aug-16 21:00N 78°54' E 011°48'17 5.5 310 / 191009.6 1.0-1.4 6.0
2017-Aug-16 18:00N 79°06' E 010°48'3110.2 320 / 211007.6 1.1 2.0 1.0-0.5 7.2
2017-Aug-16 15:00N 79°36' E 010°12'11 3.6 330 / 171005.0 -0.2-2.3 6.4
2017-Aug-16 12:00N 79°36' E 011°12'6 2.1 320 999.7 1.1 1.5 0.1-0.9 5.3
2017-Aug-16 09:00N 79°42' E 011°00'6 2.0 020 / 12995.2 2.8 1.1 5.9
2017-Aug-16 06:00N 79°48' E 010°54'6 2.1 070 / 14994.5 2.7 0.6 6.1
2017-Aug-16 03:00N 79°42' E 011°06'6 2.0 100 / 2995.1 3.3 1.3 6.3
2017-Aug-16 00:00N 79°36' E 011°06'21 7.0 350 / 10995.8 3.1 1.3 6.1
2017-Aug-15 21:00N 79°54' E 012°06'29 9.6 240 / 2996.6 1.8 0.5 6.0
2017-Aug-15 18:00N 80°06' E 014°36'20 6.8 997.1 2.2 0.5 0.5-0.6 4.7
2017-Aug-15 15:00N 80°18' E 016°12'20 6.7 310 / 8997.0 0.8 0.2 4.9
2017-Aug-15 12:00N 80°24' E 018°06'3010.2 020 / 4996.0 2.2 0.5 2.2 1.6 3.8
2017-Aug-15 09:00N 80°30' E 021°06'12 3.8 050 / 4995.0 1.3 0.1 2.6
2017-Aug-15 06:00N 80°36' E 022°06'0 0.0 070 / 4994.2 8.1 0.8-0.3 2.2
2017-Aug-15 03:00N 80°36' E 022°06'0 0.0 090 / 8993.7 0.9-0.2 2.1
2017-Aug-15 00:00N 80°36' E 022°06'18 6.0 100 / 10993.8 0.9 0.1 1.9
2017-Aug-14 21:00N 80°18' E 022°12'7 2.2 120 / 10993.6 3.1 1.1 2.3
2017-Aug-14 18:00N 80°24' E 021°54'13 4.2 040 / 2994.2 3.6 2.2 2.5
2017-Aug-14 15:00N 80°12' E 022°18'2 0.7 100 / 8994.8 3.8 1.8 2.3
2017-Aug-14 12:00N 80°12' E 022°30'1 0.3 090 / 10995.7 3.7 1.3 2.2
2017-Aug-14 09:00N 80°12' E 022°24'7 2.2 100 / 16996.7 3.5 0.8 2.6
2017-Aug-14 06:00N 80°18' E 022°06'1 0.3 160 / 2997.729.7 3.6 0.6 2.2
2017-Aug-14 03:00N 80°18' E 022°00'1 0.3 150 / 10998.7 3.8 0.6 2.5
2017-Aug-14 00:00N 80°18' E 022°06'6 2.0 160 / 16999.8 3.7 0.2 2.1
2017-Aug-13 21:00N 80°12' E 022°12'6 2.0 190 / 141000.7 3.8 0.5 2.5
2017-Aug-13 18:00N 80°18' E 022°06'12 2.0 170 / 61001.713.5 0.5 4.2-0.0 2.5
2017-Aug-13 12:00N 80°06' E 022°06'1 0.3 180 / 171003.2 6.0-0.5 1.4
2017-Aug-13 09:00N 80°06' E 022°12'6 2.0 200 / 161004.2 3.3-0.6 1.2
2017-Aug-13 06:00N 80°00' E 022°12'12 4.0 180 / 211004.513.5 1.0 3.7-0.5 1.1
2017-Aug-13 03:00N 80°12' E 022°12'12 4.1 200 / 271004.2 3.2 0.2 1.6
2017-Aug-13 00:00N 80°24' E 022°00'2 0.7 150 / 141005.6 3.7 0.9 2.1
2017-Aug-12 21:00N 80°24' E 022°12'12 4.0 160 / 121006.3 3.6 0.8 2.9
2017-Aug-12 18:00N 80°12' E 022°06'6 2.0 190 / 231006.6 4.0 0.5 1.3
2017-Aug-12 15:00N 80°18' E 022°06'1 0.3 190 / 161007.7 4.5 0.4 2.3
2017-Aug-12 12:00N 80°18' E 022°12'0 0.0 210 / 161008.629.7 1.0 4.5 0.5 2.2
2017-Aug-12 09:00N 80°18' E 022°12'1 0.3 190 / 121009.2 4.4 0.6 2.9
2017-Aug-12 06:00N 80°18' E 022°06'6 2.0 170 / 101009.6 4.2 0.4 2.0
2017-Aug-12 03:00N 80°24' E 022°00'54 8.9 170 / 161010.3 3.1 0.1 1.9
2017-Aug-11 21:00N 80°18' E 016°42'3110.3 140 / 311010.7 2.8 0.8 3.4
2017-Aug-11 18:00N 79°54' E 014°48'25 8.4 330 / 41010.7 5.4 3.2 6.1
2017-Aug-11 15:00N 79°54' E 012°24'13 4.2 020 / 81012.2 5.0 2.7 6.2
2017-Aug-11 12:00N 79°42' E 012°00'0 0.0 250 / 21013.229.7 5.9 2.3 6.4
2017-Aug-11 09:00N 79°42' E 012°00'0 0.0 300 / 21013.5 5.4 2.2 6.6
2017-Aug-11 06:00N 79°42' E 012°00'6 2.0 190 / 41013.713.5 0.5 4.9 2.7 6.3
2017-Aug-11 03:00N 79°48' E 012°00'1 0.4 090 / 81014.3 4.5 2.8 6.2
2017-Aug-11 00:00N 79°48' E 011°54'6 2.0 070 / 81015.313.5 1.0 4.2 2.7 6.4
2017-Aug-10 21:00N 79°42' E 011°54'6 2.0 070 / 61015.713.5 1.0 4.7 2.5 6.8
2017-Aug-10 18:00N 79°48' E 011°54'0 0.0 080 / 101016.2 4.5 2.3 6.2
2017-Aug-10 15:00N 79°48' E 011°54'6 2.0 050 / 81016.7 3.8 2.8 6.1
2017-Aug-10 12:00N 79°42' E 012°00'0 0.0 350 / 61017.2 3.1 2.1 6.5
2017-Aug-10 09:00N 79°42' E 012°00'12 4.1 340 / 101017.5 2.7 1.6 6.6
2017-Aug-10 06:00N 79°36' E 011°00'24 8.1 260 / 61017.5 4.0 2.6 6.9
2017-Aug-10 03:00N 79°12' E 010°42'14 4.6 210 / 81018.2 4.2 2.5 7.1
2017-Aug-10 00:00N 79°00' E 011°18'9 3.0 200 / 41019.3 4.7 1.1 7.1
2017-Aug-09 21:00N 78°54' E 011°54'7 2.3 120 / 81020.2 4.2 0.8 5.1
2017-Aug-09 18:00N 79°00' E 011°36'7 2.3 160 / 81020.2 5.5 1.6 7.0
2017-Aug-09 15:00N 78°54' E 011°54'   110 / 41021.0 5.2 1.1 5.2
Track history (hours):
 
Tides and Currents Weather Stations Pressure Air Temp Water Temp Dewpoint Dewpoint Depression Visibility Wind Speed Wind Dir Waves Ship Positions

Oceanographic research ship RV Helmer Hanssen (Norway)

ex Jan Mayen.

Ship's website: http://uit.no/bfe

Detailed information on ship capabilities available from University of Delaware's Ocean Information Center and ARCUS's ALIAS (Arctic Logistics Information and Support) project.

Last reported at 2017-Aug-19 12:00 UTC. Time now 2017-Aug-19 15:01 UTC.
Position N 78°12' E 015°36'.

Length 64 m; beam 13 m.

Type: Cargo ship. MMSI: 257471500.

Wind from 020 at 4 knots

Barometer 1014.5 mb
Air temperature 6.0 ° C
Dewpoint -1.2 ° C
Water temperature 7.5 ° C

Date/timePositionNaut miles runAvg speedWind from/ knotsBaromVisibWave heightAir tempDewpointWater temp
2017-Aug-19 12:00N 78°12' E 015°36'0 0.0 020 / 41014.5 6.0-1.2 7.5
2017-Aug-19 09:00N 78°12' E 015°36'0 0.0 020 / 21015.1 5.0-1.7 7.5
2017-Aug-19 06:00N 78°12' E 015°36'0 0.0 090 / 41015.5 3.7-2.3 7.2
2017-Aug-19 03:00N 78°12' E 015°36'0 0.0 230 / 81015.6 2.5-2.3 7.2
2017-Aug-19 00:00N 78°12' E 015°36'0 0.0 100 / 21015.8 2.7-1.9 7.5
2017-Aug-18 21:00N 78°12' E 015°36'6 2.0 230 / 81015.8 4.0-1.9 7.3
2017-Aug-18 18:00N 78°18' E 015°30'23 7.7 220 / 121015.7 4.4-1.2 7.1
2017-Aug-18 15:00N 78°36' E 016°42'0 0.0 100 / 21015.5 4.5-2.3 7.9
2017-Aug-18 12:00N 78°36' E 016°42'2 0.8 140 / 21015.7 4.2-1.9 7.5
2017-Aug-18 09:00N 78°36' E 016°30'0 0.0 360 / 41015.6 3.2-1.7 7.6
2017-Aug-18 06:00N 78°36' E 016°30'0 0.0 350 / 101014.829.7 0.5 2.7-2.3 7.7
2017-Aug-18 03:00N 78°36' E 016°30'0 0.0 340 / 61014.7 3.2-2.4 7.6
2017-Aug-18 00:00N 78°36' E 016°30'24 7.9 310 / 161014.1 3.2-3.0 7.5
2017-Aug-17 21:00N 78°18' E 015°12'4 1.2 290 / 191015.0 3.2-3.3 6.9
2017-Aug-17 18:00N 78°18' E 015°30'9 3.1 280 / 191014.2 3.5-4.1 7.4
2017-Aug-17 15:00N 78°24' E 016°06'9 2.8 290 / 251013.0 3.8-2.8 6.5
2017-Aug-17 12:00N 78°18' E 015°36'9 2.8 270 / 171013.1 4.4-3.3 6.8
2017-Aug-17 09:00N 78°18' E 014°54'28 9.5 290 / 161013.1 3.3-3.2 6.9
2017-Aug-17 06:00N 78°06' E 012°48'3010.1 320 / 141013.013.5 2.0 2.5-2.3 6.3
2017-Aug-17 03:00N 78°24' E 010°48'3110.2 320 / 251013.0 1.8-1.0 6.8
2017-Aug-17 00:00N 78°54' E 010°18'17 5.8 340 / 171011.7 1.1-1.7 6.8
2017-Aug-16 21:00N 78°54' E 011°48'17 5.5 310 / 191009.6 1.0-1.4 6.0
2017-Aug-16 18:00N 79°06' E 010°48'3110.2 320 / 211007.6 1.1 2.0 1.0-0.5 7.2
2017-Aug-16 15:00N 79°36' E 010°12'11 3.6 330 / 171005.0 -0.2-2.3 6.4
2017-Aug-16 12:00N 79°36' E 011°12'6 2.1 320 999.7 1.1 1.5 0.1-0.9 5.3
2017-Aug-16 09:00N 79°42' E 011°00'6 2.0 020 / 12995.2 2.8 1.1 5.9
2017-Aug-16 06:00N 79°48' E 010°54'6 2.1 070 / 14994.5 2.7 0.6 6.1
2017-Aug-16 03:00N 79°42' E 011°06'6 2.0 100 / 2995.1 3.3 1.3 6.3
2017-Aug-16 00:00N 79°36' E 011°06'21 7.0 350 / 10995.8 3.1 1.3 6.1
2017-Aug-15 21:00N 79°54' E 012°06'29 9.6 240 / 2996.6 1.8 0.5 6.0
2017-Aug-15 18:00N 80°06' E 014°36'20 6.8 997.1 2.2 0.5 0.5-0.6 4.7
2017-Aug-15 15:00N 80°18' E 016°12'20 6.7 310 / 8997.0 0.8 0.2 4.9
2017-Aug-15 12:00N 80°24' E 018°06'3010.2 020 / 4996.0 2.2 0.5 2.2 1.6 3.8
2017-Aug-15 09:00N 80°30' E 021°06'12 3.8 050 / 4995.0 1.3 0.1 2.6
2017-Aug-15 06:00N 80°36' E 022°06'0 0.0 070 / 4994.2 8.1 0.8-0.3 2.2
2017-Aug-15 03:00N 80°36' E 022°06'0 0.0 090 / 8993.7 0.9-0.2 2.1
2017-Aug-15 00:00N 80°36' E 022°06'18 6.0 100 / 10993.8 0.9 0.1 1.9
2017-Aug-14 21:00N 80°18' E 022°12'7 2.2 120 / 10993.6 3.1 1.1 2.3
2017-Aug-14 18:00N 80°24' E 021°54'13 4.2 040 / 2994.2 3.6 2.2 2.5
2017-Aug-14 15:00N 80°12' E 022°18'2 0.7 100 / 8994.8 3.8 1.8 2.3
2017-Aug-14 12:00N 80°12' E 022°30'1 0.3 090 / 10995.7 3.7 1.3 2.2
2017-Aug-14 09:00N 80°12' E 022°24'7 2.2 100 / 16996.7 3.5 0.8 2.6
2017-Aug-14 06:00N 80°18' E 022°06'1 0.3 160 / 2997.729.7 3.6 0.6 2.2
2017-Aug-14 03:00N 80°18' E 022°00'1 0.3 150 / 10998.7 3.8 0.6 2.5
2017-Aug-14 00:00N 80°18' E 022°06'6 2.0 160 / 16999.8 3.7 0.2 2.1
2017-Aug-13 21:00N 80°12' E 022°12'6 2.0 190 / 141000.7 3.8 0.5 2.5
2017-Aug-13 18:00N 80°18' E 022°06'12 2.0 170 / 61001.713.5 0.5 4.2-0.0 2.5
2017-Aug-13 12:00N 80°06' E 022°06'1 0.3 180 / 171003.2 6.0-0.5 1.4
2017-Aug-13 09:00N 80°06' E 022°12'6 2.0 200 / 161004.2 3.3-0.6 1.2
2017-Aug-13 06:00N 80°00' E 022°12'12 4.0 180 / 211004.513.5 1.0 3.7-0.5 1.1
2017-Aug-13 03:00N 80°12' E 022°12'12 4.1 200 / 271004.2 3.2 0.2 1.6
2017-Aug-13 00:00N 80°24' E 022°00'2 0.7 150 / 141005.6 3.7 0.9 2.1
2017-Aug-12 21:00N 80°24' E 022°12'12 4.0 160 / 121006.3 3.6 0.8 2.9
2017-Aug-12 18:00N 80°12' E 022°06'6 2.0 190 / 231006.6 4.0 0.5 1.3
2017-Aug-12 15:00N 80°18' E 022°06'1 0.3 190 / 161007.7 4.5 0.4 2.3
2017-Aug-12 12:00N 80°18' E 022°12'0 0.0 210 / 161008.629.7 1.0 4.5 0.5 2.2
2017-Aug-12 09:00N 80°18' E 022°12'1 0.3 190 / 121009.2 4.4 0.6 2.9
2017-Aug-12 06:00N 80°18' E 022°06'6 2.0 170 / 101009.6 4.2 0.4 2.0
2017-Aug-12 03:00N 80°24' E 022°00'54 8.9 170 / 161010.3 3.1 0.1 1.9
2017-Aug-11 21:00N 80°18' E 016°42'3110.3 140 / 311010.7 2.8 0.8 3.4
2017-Aug-11 18:00N 79°54' E 014°48'25 8.4 330 / 41010.7 5.4 3.2 6.1
2017-Aug-11 15:00N 79°54' E 012°24'13 4.2 020 / 81012.2 5.0 2.7 6.2
2017-Aug-11 12:00N 79°42' E 012°00'0 0.0 250 / 21013.229.7 5.9 2.3 6.4
2017-Aug-11 09:00N 79°42' E 012°00'0 0.0 300 / 21013.5 5.4 2.2 6.6
2017-Aug-11 06:00N 79°42' E 012°00'6 2.0 190 / 41013.713.5 0.5 4.9 2.7 6.3
2017-Aug-11 03:00N 79°48' E 012°00'1 0.4 090 / 81014.3 4.5 2.8 6.2
2017-Aug-11 00:00N 79°48' E 011°54'6 2.0 070 / 81015.313.5 1.0 4.2 2.7 6.4
2017-Aug-10 21:00N 79°42' E 011°54'6 2.0 070 / 61015.713.5 1.0 4.7 2.5 6.8
2017-Aug-10 18:00N 79°48' E 011°54'0 0.0 080 / 101016.2 4.5 2.3 6.2
2017-Aug-10 15:00N 79°48' E 011°54'6 2.0 050 / 81016.7 3.8 2.8 6.1
2017-Aug-10 12:00N 79°42' E 012°00'0 0.0 350 / 61017.2 3.1 2.1 6.5
2017-Aug-10 09:00N 79°42' E 012°00'12 4.1 340 / 101017.5 2.7 1.6 6.6
2017-Aug-10 06:00N 79°36' E 011°00'24 8.1 260 / 61017.5 4.0 2.6 6.9
2017-Aug-10 03:00N 79°12' E 010°42'14 4.6 210 / 81018.2 4.2 2.5 7.1
2017-Aug-10 00:00N 79°00' E 011°18'9 3.0 200 / 41019.3 4.7 1.1 7.1
2017-Aug-09 21:00N 78°54' E 011°54'7 2.3 120 / 81020.2 4.2 0.8 5.1
2017-Aug-09 18:00N 79°00' E 011°36'7 2.3 160 / 81020.2 5.5 1.6 7.0
2017-Aug-09 15:00N 78°54' E 011°54'   110 / 41021.0 5.2 1.1 5.2

Dump ship's entire track history